Pagina principale
METAR-TAF:

METAR-TAF

Aeroporti :

Salerno, Italia

Aeroporto di Salerno-Costa d'Amalfi

latitudine: 40-37N, longitudine: 014-55E, altezza: 40 m

Osservazione

Il bollettino è stato emesso 8 ore e 54 minuti fa, alle 15:50 UTC
Vento 12 kt da sud/sud-ovest
Temperature 12°C
Umidità 88%
Pressione 1015 hPa
Visibilità: 7000 m
Nubi sparse ad un'altezza di 2000 ft
Nuvoloso ad un'altezza di 4000 ft
pioggia

METAR: LIRI 161550Z 21012KT 7000 RA SCT020 BKN040 12/10 Q1015

Ora: 01:44 (00:44 UTC)


TAF: mancante

Osservazioni e previsioni meteorologiche di più di 4000 aeroporti (messaggi METAR e TAF).

Le stazioni disponibili sono rappresentate dai dischi gialli e rossi sulla carta.

Puntare il mouse per vedere il nome della stazione.

Clicca sopra per visualizzare le osservazioni e previsioni meteorologiche.

Per cambiare la mappa : fare clic sui pulsanti verdi con una croce nera per ingrandire, il pulsante verde con un trattino per diminuire, o sulla freccia verde per le mappe adiacenti.


METAR-TAF: